createdAt,value
2023-03-04T00:02:05.395Z,6.32
2023-03-04T00:04:31.961Z,6.35
2023-03-04T00:06:58.431Z,6.34
2023-03-04T00:09:24.877Z,6.37
2023-03-04T00:11:51.433Z,6.37
2023-03-04T00:14:17.904Z,6.29
2023-03-04T00:16:44.392Z,6.18
2023-03-04T00:19:11.351Z,6.28
2023-03-04T00:21:37.810Z,6.27
2023-03-04T00:24:04.294Z,6.21
2023-03-04T00:26:30.787Z,6.15
2023-03-04T00:28:57.304Z,6.21
2023-03-04T00:31:24.071Z,6.19
2023-03-04T00:33:50.543Z,6.21
2023-03-04T00:36:17.174Z,6.20
2023-03-04T00:38:43.608Z,6.18
2023-03-04T00:41:10.093Z,6.06
2023-03-04T00:43:36.612Z,6.09
2023-03-04T00:46:03.184Z,6.04
2023-03-04T00:48:29.661Z,6.04
2023-03-04T00:50:56.093Z,6.17
2023-03-04T00:53:24.059Z,6.27
2023-03-04T00:55:50.576Z,6.15
2023-03-04T00:58:17.334Z,6.12
2023-03-04T01:00:43.860Z,6.20
2023-03-04T01:03:10.323Z,6.07
2023-03-04T01:05:36.803Z,6.22
2023-03-04T01:08:04.188Z,6.18
2023-03-04T01:10:31.138Z,6.17
2023-03-04T01:12:57.635Z,6.29
2023-03-04T01:15:24.215Z,5.98
2023-03-04T01:17:50.746Z,6.06
2023-03-04T01:20:17.289Z,6.23
2023-03-04T01:22:43.782Z,6.21
2023-03-04T01:25:10.581Z,6.24
2023-03-04T01:27:37.044Z,6.13
2023-03-04T01:30:04.496Z,6.10
2023-03-04T01:32:31.049Z,6.33
2023-03-04T01:34:57.531Z,6.18
2023-03-04T01:37:23.997Z,6.15
2023-03-04T01:39:50.433Z,6.01
2023-03-04T01:42:22.578Z,6.16
2023-03-04T01:44:51.178Z,6.07
2023-03-04T01:47:19.248Z,6.24
2023-03-04T01:49:51.357Z,6.11
2023-03-04T01:52:17.854Z,6.18
2023-03-04T01:54:44.401Z,6.23
2023-03-04T01:57:17.806Z,6.23
2023-03-04T01:59:44.801Z,6.02
2023-03-04T02:02:12.034Z,6.00
2023-03-04T02:04:40.732Z,6.09
2023-03-04T02:07:07.398Z,5.87
2023-03-04T02:09:35.133Z,5.97
2023-03-04T02:12:02.108Z,6.01
2023-03-04T02:14:28.875Z,6.11
2023-03-04T02:16:55.422Z,6.17
2023-03-04T02:19:49.703Z,6.06
2023-03-04T02:22:16.151Z,6.08
2023-03-04T02:24:51.007Z,6.01
2023-03-04T02:27:17.633Z,6.14
2023-03-04T02:29:44.299Z,6.06
2023-03-04T02:32:13.028Z,6.12
2023-03-04T02:34:46.887Z,6.14
2023-03-04T02:37:13.879Z,6.05
2023-03-04T02:39:42.925Z,6.12
2023-03-04T02:42:09.919Z,6.04
2023-03-04T02:44:39.076Z,6.03
2023-03-04T02:47:08.454Z,5.91
2023-03-04T02:49:37.086Z,6.15
2023-03-04T02:52:05.798Z,6.12
2023-03-04T02:54:32.693Z,6.00
2023-03-04T02:57:03.893Z,6.02
2023-03-04T02:59:30.711Z,6.04
2023-03-04T03:01:57.489Z,6.08
2023-03-04T03:04:25.374Z,5.98
2023-03-04T03:06:52.146Z,5.92
2023-03-04T03:09:20.577Z,5.86
2023-03-04T03:11:47.051Z,5.98
2023-03-04T03:14:13.510Z,6.01
2023-03-04T03:16:40.063Z,5.98
2023-03-04T03:19:06.558Z,5.90
2023-03-04T03:21:33.504Z,5.97
2023-03-04T03:23:59.924Z,6.04
2023-03-04T03:26:26.387Z,5.98
2023-03-04T03:28:52.881Z,5.96
2023-03-04T03:31:20.095Z,5.79
2023-03-04T03:33:46.947Z,5.92
2023-03-04T03:36:13.823Z,5.86
2023-03-04T03:38:40.302Z,5.86
2023-03-04T03:41:06.783Z,6.01
2023-03-04T03:43:33.227Z,5.92
2023-03-04T03:45:59.749Z,6.02
2023-03-04T03:48:26.196Z,6.08
2023-03-04T03:50:52.631Z,5.87
2023-03-04T03:53:19.091Z,5.90
2023-03-04T03:55:45.553Z,5.87
2023-03-04T03:58:12.051Z,6.00
2023-03-04T04:00:38.495Z,5.84
2023-03-04T04:03:05.285Z,5.96
2023-03-04T04:05:31.971Z,5.94
2023-03-04T04:07:58.423Z,5.96
2023-03-04T04:10:24.883Z,6.03
2023-03-04T04:12:51.468Z,5.96
2023-03-04T04:15:17.970Z,5.90
2023-03-04T04:17:44.454Z,5.97
2023-03-04T04:20:11.475Z,5.95
2023-03-04T04:22:37.899Z,5.88
2023-03-04T04:25:05.142Z,5.88
2023-03-04T04:27:31.666Z,5.92
2023-03-04T04:29:58.158Z,5.98
2023-03-04T04:32:24.646Z,6.00
2023-03-04T04:34:51.209Z,5.95
2023-03-04T04:37:17.657Z,5.85
2023-03-04T04:39:44.165Z,5.93
2023-03-04T04:42:11.730Z,5.85
2023-03-04T04:44:39.025Z,5.89
2023-03-04T04:47:07.325Z,5.96
2023-03-04T04:49:34.256Z,5.88
2023-03-04T04:52:00.855Z,5.82
2023-03-04T04:54:27.330Z,5.91
2023-03-04T04:56:53.864Z,5.87
2023-03-04T04:59:20.726Z,5.79
2023-03-04T05:01:47.462Z,5.91
2023-03-04T05:04:14.018Z,5.88
2023-03-04T05:06:40.658Z,5.72
2023-03-04T05:09:07.373Z,5.81
2023-03-04T05:11:33.956Z,5.87
2023-03-04T05:14:00.455Z,5.89
2023-03-04T05:16:26.998Z,5.90
2023-03-04T05:18:53.499Z,5.92
2023-03-04T05:21:19.950Z,5.81
2023-03-04T05:23:46.654Z,5.94
2023-03-04T05:26:16.168Z,5.96
2023-03-04T05:28:42.645Z,5.91
2023-03-04T05:31:09.316Z,5.86
2023-03-04T05:33:35.941Z,5.69
2023-03-04T05:36:04.480Z,5.79
2023-03-04T05:38:31.281Z,5.86
2023-03-04T05:40:59.866Z,5.70
2023-03-04T05:43:27.859Z,5.61
2023-03-04T05:45:55.277Z,5.72
2023-03-04T05:48:22.094Z,5.87
2023-03-04T05:50:53.687Z,5.67
2023-03-04T05:53:20.127Z,5.63
2023-03-04T05:55:47.566Z,5.73
2023-03-04T05:58:14.895Z,5.90
2023-03-04T06:00:41.394Z,5.94
2023-03-04T06:03:14.238Z,5.86
2023-03-04T06:05:40.772Z,5.72
2023-03-04T06:08:07.290Z,5.75
2023-03-04T06:10:33.808Z,5.72
2023-03-04T06:13:00.276Z,5.82
2023-03-04T06:15:26.811Z,5.83
2023-03-04T06:17:53.261Z,5.77
2023-03-04T06:20:19.867Z,5.79
2023-03-04T06:22:46.334Z,5.76
2023-03-04T06:25:12.822Z,5.89
2023-03-04T06:27:39.389Z,5.82
2023-03-04T06:30:06.723Z,5.75
2023-03-04T06:32:33.313Z,5.74
2023-03-04T06:34:59.907Z,5.70
2023-03-04T06:37:26.405Z,5.74
2023-03-04T06:39:52.940Z,5.69
2023-03-04T06:42:19.537Z,5.74
2023-03-04T06:44:45.977Z,5.85
2023-03-04T06:47:12.425Z,5.78
2023-03-04T06:49:38.821Z,5.80
2023-03-04T06:52:05.383Z,5.81
2023-03-04T06:54:31.882Z,5.79
2023-03-04T06:56:58.335Z,5.85
2023-03-04T06:59:24.905Z,5.88
2023-03-04T07:01:51.429Z,5.95
2023-03-04T07:04:18.003Z,5.97
2023-03-04T07:06:44.464Z,5.95
2023-03-04T07:09:11.105Z,5.87
2023-03-04T07:11:37.584Z,5.98
2023-03-04T07:14:04.057Z,6.11
2023-03-04T07:16:30.720Z,5.95
2023-03-04T07:18:57.193Z,6.00
2023-03-04T07:21:23.701Z,5.92
2023-03-04T07:23:50.491Z,6.00
2023-03-04T07:26:17.808Z,5.89
2023-03-04T07:28:44.368Z,6.02
2023-03-04T07:31:24.423Z,6.05
2023-03-04T07:33:51.765Z,6.01
2023-03-04T07:36:19.791Z,6.16
2023-03-04T07:38:47.617Z,6.14
2023-03-04T07:41:14.262Z,6.35
2023-03-04T07:43:40.708Z,6.51
2023-03-04T07:46:08.045Z,6.90
2023-03-04T07:48:34.599Z,6.78
2023-03-04T07:51:05.426Z,6.54
2023-03-04T07:53:32.929Z,6.50
2023-03-04T07:56:01.620Z,6.33
2023-03-04T07:58:29.009Z,6.58
2023-03-04T08:00:55.456Z,6.66
2023-03-04T08:03:22.259Z,6.68
2023-03-04T08:05:48.758Z,6.77
2023-03-04T08:08:17.283Z,7.04
2023-03-04T08:10:44.848Z,6.93
2023-03-04T08:13:11.389Z,6.95
2023-03-04T08:15:41.815Z,6.94
2023-03-04T08:18:08.523Z,7.06
2023-03-04T08:20:35.351Z,6.94
2023-03-04T08:23:01.842Z,7.00
2023-03-04T08:25:28.409Z,7.18
2023-03-04T08:27:54.849Z,7.05
2023-03-04T08:30:21.436Z,7.24
2023-03-04T08:32:47.996Z,7.27
2023-03-04T08:35:14.544Z,7.43
2023-03-04T08:37:40.958Z,7.43
2023-03-04T08:40:08.025Z,7.23
2023-03-04T08:42:34.459Z,7.18
2023-03-04T08:45:00.860Z,7.53
2023-03-04T08:47:27.313Z,7.81
2023-03-04T08:49:53.792Z,7.61
2023-03-04T08:52:20.285Z,7.44
2023-03-04T08:54:47.655Z,7.50
2023-03-04T08:57:14.157Z,7.66
2023-03-04T08:59:40.670Z,7.94
2023-03-04T09:02:07.377Z,7.94
2023-03-04T09:04:34.040Z,7.86
2023-03-04T09:07:00.504Z,7.86
2023-03-04T09:09:27.121Z,8.15
2023-03-04T09:11:53.522Z,8.51
2023-03-04T09:14:19.980Z,8.56
2023-03-04T09:16:46.375Z,8.16
2023-03-04T09:19:12.871Z,8.22
2023-03-04T09:21:39.394Z,8.50
2023-03-04T09:24:06.108Z,8.40
2023-03-04T09:26:32.656Z,8.36
2023-03-04T09:29:00.814Z,8.04
2023-03-04T09:31:28.743Z,7.82
2023-03-04T09:33:56.790Z,8.06
2023-03-04T09:36:23.765Z,8.39
2023-03-04T09:38:50.461Z,8.20
2023-03-04T09:41:21.750Z,8.08
2023-03-04T09:43:50.279Z,7.80
2023-03-04T09:46:22.999Z,8.15
2023-03-04T09:48:52.125Z,9.36
2023-03-04T09:51:37.467Z,10.26
2023-03-04T09:54:11.359Z,9.80
2023-03-04T09:56:40.348Z,9.60
2023-03-04T09:59:25.178Z,9.44
2023-03-04T10:01:55.416Z,9.58
2023-03-04T10:04:44.960Z,9.72
2023-03-04T10:07:20.129Z,9.41
2023-03-04T10:09:49.400Z,8.89
2023-03-04T10:12:21.567Z,8.64
2023-03-04T10:15:22.755Z,8.85
2023-03-04T10:17:56.044Z,9.06
2023-03-04T10:20:25.897Z,9.47
2023-03-04T10:22:58.507Z,9.29
2023-03-04T10:25:33.072Z,8.91
2023-03-04T10:28:19.979Z,8.72
2023-03-04T10:31:04.620Z,9.00
2023-03-04T10:33:35.204Z,9.99
2023-03-04T10:36:35.165Z,10.96
2023-03-04T10:39:07.782Z,10.56
2023-03-04T10:41:34.401Z,10.00
2023-03-04T10:44:11.305Z,9.67
2023-03-04T10:46:39.998Z,9.39
2023-03-04T10:49:06.580Z,9.37
2023-03-04T10:51:41.613Z,9.39
2023-03-04T10:54:17.469Z,9.23
2023-03-04T10:56:58.980Z,8.87
2023-03-04T10:59:46.140Z,9.03
2023-03-04T11:02:17.854Z,8.91
2023-03-04T11:04:50.301Z,8.99
2023-03-04T11:07:16.754Z,9.22
2023-03-04T11:09:45.269Z,9.67
2023-03-04T11:12:14.967Z,10.63
2023-03-04T11:14:46.640Z,11.74
2023-03-04T11:17:21.930Z,11.30
2023-03-04T11:19:57.206Z,10.64
2023-03-04T11:22:25.644Z,10.11
2023-03-04T11:25:26.390Z,9.66
2023-03-04T11:28:03.224Z,9.51
2023-03-04T11:30:36.677Z,9.80
2023-03-04T11:33:15.874Z,10.20
2023-03-04T11:36:28.348Z,10.58
2023-03-04T11:38:55.085Z,10.54
2023-03-04T11:41:25.580Z,10.51
2023-03-04T11:43:52.088Z,10.20
2023-03-04T11:46:28.997Z,10.40
2023-03-04T11:49:17.369Z,9.98
2023-03-04T11:52:01.436Z,9.90
2023-03-04T11:55:05.320Z,9.69
2023-03-04T11:57:35.493Z,9.55
2023-03-04T12:00:25.921Z,9.20
2023-03-04T12:03:20.695Z,8.88
2023-03-04T12:06:26.174Z,8.44
2023-03-04T12:09:08.906Z,8.57
2023-03-04T12:11:53.977Z,8.92
2023-03-04T12:14:41.571Z,8.87
2023-03-04T12:17:13.855Z,9.16
2023-03-04T12:19:51.060Z,9.59
2023-03-04T12:22:51.312Z,10.46
2023-03-04T12:25:32.181Z,11.36
2023-03-04T12:28:34.871Z,11.21
2023-03-04T12:31:14.070Z,12.61
2023-03-04T12:34:00.408Z,12.81
2023-03-04T12:36:51.683Z,11.99
2023-03-04T12:39:40.445Z,12.15
2023-03-04T12:42:16.792Z,11.97
2023-03-04T12:45:16.249Z,11.72
2023-03-04T12:48:24.339Z,11.05
2023-03-04T12:51:27.607Z,10.84
2023-03-04T12:54:13.061Z,10.78
2023-03-04T12:56:52.595Z,11.89
2023-03-04T12:59:22.213Z,11.24
2023-03-04T13:02:04.400Z,10.42
2023-03-04T13:04:44.385Z,10.23
2023-03-04T13:07:22.151Z,10.13
2023-03-04T13:09:58.811Z,10.28
2023-03-04T13:12:25.378Z,10.64
2023-03-04T13:15:26.370Z,11.13
2023-03-04T13:18:02.460Z,11.52
2023-03-04T13:20:42.321Z,11.60
2023-03-04T13:23:08.665Z,11.85
2023-03-04T13:25:47.574Z,11.67
2023-03-04T13:28:21.098Z,11.09
2023-03-04T13:30:57.140Z,11.64
2023-03-04T13:33:23.596Z,11.68
2023-03-04T13:36:04.277Z,11.38
2023-03-04T13:38:34.865Z,10.88
2023-03-04T13:41:19.821Z,10.67
2023-03-04T13:43:49.030Z,10.63
2023-03-04T13:46:18.659Z,10.51
2023-03-04T13:48:51.316Z,10.31
2023-03-04T13:51:28.987Z,9.87
2023-03-04T13:54:05.541Z,9.82
2023-03-04T13:56:50.318Z,9.66
2023-03-04T13:59:22.142Z,9.61
2023-03-04T14:01:55.628Z,9.89
2023-03-04T14:04:39.210Z,9.93
2023-03-04T14:07:28.075Z,9.71
2023-03-04T14:10:05.291Z,9.54
2023-03-04T14:12:44.303Z,9.37
2023-03-04T14:15:13.663Z,9.21
2023-03-04T14:17:45.548Z,9.13
2023-03-04T14:20:28.736Z,9.60
2023-03-04T14:22:56.188Z,9.48
2023-03-04T14:25:28.587Z,9.62
2023-03-04T14:28:11.545Z,9.60
2023-03-04T14:30:43.451Z,9.73
2023-03-04T14:33:21.122Z,9.71
2023-03-04T14:35:49.732Z,9.58
2023-03-04T14:38:24.080Z,9.39
2023-03-04T14:41:01.512Z,9.22
2023-03-04T14:43:30.959Z,8.88
2023-03-04T14:46:01.626Z,8.85
2023-03-04T14:48:32.285Z,8.66
2023-03-04T14:50:59.951Z,8.86
2023-03-04T14:53:29.165Z,8.72
2023-03-04T14:56:04.430Z,8.96
2023-03-04T14:58:33.199Z,9.14
2023-03-04T15:01:06.865Z,9.03
2023-03-04T15:03:34.426Z,8.97
2023-03-04T15:06:17.866Z,8.81
2023-03-04T15:08:44.931Z,8.77
2023-03-04T15:11:22.612Z,8.60
2023-03-04T15:13:52.423Z,8.53
2023-03-04T15:16:25.395Z,8.60
2023-03-04T15:19:05.900Z,8.98
2023-03-04T15:21:41.817Z,8.96
2023-03-04T15:24:11.085Z,8.94
2023-03-04T15:26:42.725Z,8.99
2023-03-04T15:29:17.902Z,9.08
2023-03-04T15:31:48.201Z,9.02
2023-03-04T15:34:16.366Z,9.03
2023-03-04T15:36:46.693Z,8.97
2023-03-04T15:39:14.977Z,8.84
2023-03-04T15:41:41.454Z,8.73
2023-03-04T15:44:09.488Z,8.58
2023-03-04T15:46:36.149Z,8.49
2023-03-04T15:49:02.599Z,8.71
2023-03-04T15:51:30.016Z,8.60
2023-03-04T15:53:58.909Z,8.68
2023-03-04T15:56:28.859Z,8.55
2023-03-04T15:58:58.736Z,8.47
2023-03-04T16:01:25.615Z,8.20
2023-03-04T16:03:53.829Z,8.26
2023-03-04T16:06:24.414Z,8.19
2023-03-04T16:08:52.224Z,8.07
2023-03-04T16:11:25.510Z,8.15
2023-03-04T16:13:52.147Z,8.32
2023-03-04T16:16:19.302Z,8.35
2023-03-04T16:18:45.783Z,8.35
2023-03-04T16:21:15.652Z,7.99
2023-03-04T16:23:45.730Z,7.94
2023-03-04T16:26:23.853Z,7.96
2023-03-04T16:28:51.824Z,7.54
2023-03-04T16:31:19.149Z,7.76
2023-03-04T16:33:45.741Z,7.86
2023-03-04T16:36:16.462Z,7.86
2023-03-04T16:38:43.209Z,7.80
2023-03-04T16:41:15.810Z,7.87
2023-03-04T16:43:43.323Z,7.86
2023-03-04T16:46:13.744Z,7.84
2023-03-04T16:48:40.518Z,7.76
2023-03-04T16:51:14.802Z,7.80
2023-03-04T16:53:44.308Z,7.79
2023-03-04T16:56:16.703Z,7.84
2023-03-04T16:58:44.375Z,7.77
2023-03-04T17:01:37.567Z,7.66
2023-03-04T17:04:04.167Z,7.41
2023-03-04T17:06:30.670Z,7.55
2023-03-04T17:08:57.088Z,7.48
2023-03-04T17:11:23.986Z,7.39
2023-03-04T17:13:51.177Z,7.39
2023-03-04T17:16:17.865Z,7.33
2023-03-04T17:18:45.981Z,7.40
2023-03-04T17:21:16.026Z,7.34
2023-03-04T17:23:42.546Z,7.22
2023-03-04T17:26:09.416Z,7.10
2023-03-04T17:28:36.002Z,7.27
2023-03-04T17:31:09.398Z,7.27
2023-03-04T17:33:35.799Z,7.08
2023-03-04T17:36:02.185Z,7.21
2023-03-04T17:38:28.622Z,7.08
2023-03-04T17:40:56.456Z,7.23
2023-03-04T17:43:23.123Z,7.22
2023-03-04T17:45:49.623Z,7.17
2023-03-04T17:48:16.448Z,7.19
2023-03-04T17:50:53.487Z,7.09
2023-03-04T17:53:20.496Z,7.15
2023-03-04T17:55:55.341Z,7.02
2023-03-04T17:58:22.495Z,6.88
2023-03-04T18:00:51.454Z,7.04
2023-03-04T18:03:18.506Z,6.82
2023-03-04T18:05:45.043Z,6.75
2023-03-04T18:08:11.751Z,6.73
2023-03-04T18:10:38.456Z,6.51
2023-03-04T18:13:04.977Z,6.75
2023-03-04T18:15:31.506Z,6.73
2023-03-04T18:17:57.914Z,6.83
2023-03-04T18:20:24.420Z,6.62
2023-03-04T18:22:51.125Z,6.65
2023-03-04T18:25:17.875Z,6.59
2023-03-04T18:27:44.291Z,6.71
2023-03-04T18:30:17.506Z,6.51
2023-03-04T18:32:51.786Z,6.57
2023-03-04T18:35:19.638Z,6.68
2023-03-04T18:37:46.333Z,6.71
2023-03-04T18:40:13.441Z,6.60
2023-03-04T18:42:39.999Z,6.57
2023-03-04T18:45:07.275Z,6.66
2023-03-04T18:47:34.091Z,6.63
2023-03-04T18:50:00.625Z,6.41
2023-03-04T18:52:27.264Z,6.47
2023-03-04T18:54:53.745Z,6.48
2023-03-04T18:57:20.477Z,6.51
2023-03-04T18:59:48.826Z,6.45
2023-03-04T19:02:21.204Z,6.40
2023-03-04T19:04:49.439Z,6.42
2023-03-04T19:07:15.910Z,6.40
2023-03-04T19:09:42.326Z,6.46
2023-03-04T19:12:09.008Z,6.42
2023-03-04T19:14:35.436Z,6.60
2023-03-04T19:17:01.851Z,6.54
2023-03-04T19:19:28.239Z,6.41
2023-03-04T19:21:54.763Z,6.45
2023-03-04T19:24:21.225Z,6.29
2023-03-04T19:26:47.665Z,6.16
2023-03-04T19:29:15.147Z,6.22
2023-03-04T19:31:43.177Z,6.26
2023-03-04T19:34:10.031Z,6.39
2023-03-04T19:36:36.589Z,6.40
2023-03-04T19:39:03.715Z,6.39
2023-03-04T19:41:30.267Z,6.34
2023-03-04T19:43:57.162Z,6.31
2023-03-04T19:46:23.736Z,6.26
2023-03-04T19:48:50.348Z,6.20
2023-03-04T19:51:19.170Z,6.14
2023-03-04T19:53:45.815Z,6.13
2023-03-04T19:56:12.322Z,6.16
2023-03-04T19:58:38.850Z,6.11
2023-03-04T20:01:05.865Z,6.04
2023-03-04T20:03:32.420Z,6.09
2023-03-04T20:06:16.980Z,5.93
2023-03-04T20:08:43.423Z,5.97
2023-03-04T20:11:13.349Z,5.85
2023-03-04T20:13:39.930Z,5.89
2023-03-04T20:16:11.048Z,5.91
2023-03-04T20:18:37.997Z,5.89
2023-03-04T20:21:05.022Z,5.95
2023-03-04T20:23:31.726Z,5.88
2023-03-04T20:25:58.273Z,6.01
2023-03-04T20:28:25.508Z,5.86
2023-03-04T20:30:53.483Z,5.91
2023-03-04T20:33:20.550Z,5.95
2023-03-04T20:35:47.014Z,6.01
2023-03-04T20:38:14.396Z,6.04
2023-03-04T20:40:41.516Z,6.07
2023-03-04T20:43:08.000Z,6.11
2023-03-04T20:45:37.282Z,6.05
2023-03-04T20:48:04.187Z,5.86
2023-03-04T20:50:30.645Z,5.93
2023-03-04T20:52:57.086Z,5.86
2023-03-04T20:55:23.962Z,5.80
2023-03-04T20:57:50.477Z,5.87
2023-03-04T21:00:17.132Z,5.85
2023-03-04T21:02:43.584Z,5.75
2023-03-04T21:05:10.157Z,5.88
2023-03-04T21:07:36.616Z,5.86
2023-03-04T21:10:04.275Z,5.80
2023-03-04T21:12:30.867Z,5.85
2023-03-04T21:14:57.355Z,5.92
2023-03-04T21:17:24.638Z,5.83
2023-03-04T21:19:51.134Z,5.76
2023-03-04T21:22:19.456Z,5.77
2023-03-04T21:24:46.820Z,5.78
2023-03-04T21:27:15.057Z,5.66
2023-03-04T21:29:41.461Z,5.72
2023-03-04T21:32:23.779Z,5.54
2023-03-04T21:34:52.621Z,5.72
2023-03-04T21:37:20.682Z,5.73
2023-03-04T21:39:47.463Z,5.74
2023-03-04T21:42:13.990Z,5.72
2023-03-04T21:44:50.355Z,5.73
2023-03-04T21:47:18.653Z,5.65
2023-03-04T21:49:45.475Z,5.54
2023-03-04T21:52:13.095Z,5.52
2023-03-04T21:54:39.612Z,5.61
2023-03-04T21:57:06.230Z,5.68
2023-03-04T21:59:32.692Z,5.50
2023-03-04T22:01:59.296Z,5.58
2023-03-04T22:04:25.780Z,5.52
2023-03-04T22:06:52.392Z,5.59
2023-03-04T22:09:18.910Z,5.66
2023-03-04T22:11:45.371Z,5.53
2023-03-04T22:14:12.381Z,5.54
2023-03-04T22:16:59.056Z,5.50
2023-03-04T22:19:27.862Z,5.54
2023-03-04T22:21:54.509Z,5.42
2023-03-04T22:24:21.538Z,5.59
2023-03-04T22:26:48.321Z,5.53
2023-03-04T22:29:14.837Z,5.47
2023-03-04T22:31:41.387Z,5.54
2023-03-04T22:34:13.649Z,5.48
2023-03-04T22:36:42.824Z,5.63
2023-03-04T22:39:11.337Z,5.55
2023-03-04T22:41:37.856Z,5.50
2023-03-04T22:44:06.271Z,5.46
2023-03-04T22:46:34.801Z,5.47
2023-03-04T22:49:06.727Z,5.51
2023-03-04T22:51:33.198Z,5.43
2023-03-04T22:53:59.789Z,5.47
2023-03-04T22:56:26.224Z,5.49
2023-03-04T22:58:52.938Z,5.48
2023-03-04T23:01:20.720Z,5.39
2023-03-04T23:03:48.932Z,5.45
2023-03-04T23:06:20.510Z,5.45
2023-03-04T23:08:48.834Z,5.36
2023-03-04T23:11:22.186Z,5.25
2023-03-04T23:13:49.792Z,5.38
2023-03-04T23:16:17.468Z,5.36
2023-03-04T23:18:47.235Z,5.41
2023-03-04T23:21:16.960Z,5.22
2023-03-04T23:23:43.477Z,5.27
2023-03-04T23:26:18.660Z,5.41
2023-03-04T23:28:45.471Z,5.38
2023-03-04T23:31:14.899Z,5.29
2023-03-04T23:33:46.843Z,5.22
2023-03-04T23:36:16.410Z,5.20
2023-03-04T23:38:45.011Z,5.33
2023-03-04T23:41:13.761Z,5.28
2023-03-04T23:43:40.405Z,5.36
2023-03-04T23:46:09.175Z,5.26
2023-03-04T23:48:35.719Z,5.26
2023-03-04T23:51:02.248Z,5.18
2023-03-04T23:53:29.433Z,5.34
2023-03-04T23:55:56.341Z,5.24
2023-03-04T23:58:22.754Z,5.16
